createdAt,value
2022-10-31T03:55:44.174Z,25.90
2022-10-31T03:59:18.057Z,27.20
2022-10-31T04:02:51.625Z,29.10
2022-10-31T04:06:21.006Z,29.10
2022-10-31T04:09:50.057Z,30.20
2022-10-31T04:13:25.023Z,30.40
2022-10-31T04:16:59.646Z,34.40
2022-10-31T04:20:38.648Z,36.60
2022-10-31T04:24:06.434Z,37.20
2022-10-31T04:27:33.423Z,36.30
2022-10-31T04:31:00.387Z,37.70
2022-10-31T04:34:28.651Z,35.50
2022-10-31T04:37:55.768Z,38.70
2022-10-31T04:41:23.424Z,41.80
2022-10-31T04:44:58.856Z,37.40
2022-10-31T04:48:25.790Z,38.00
2022-10-31T04:51:52.677Z,47.50
2022-10-31T04:55:19.784Z,40.90
2022-10-31T04:59:06.937Z,45.40
2022-10-31T05:02:48.533Z,46.90
2022-10-31T05:06:15.312Z,52.90
2022-10-31T05:09:42.414Z,50.70
2022-10-31T05:13:09.520Z,51.80
2022-10-31T05:16:45.560Z,48.30
2022-10-31T05:20:47.260Z,46.70
2022-10-31T05:24:25.031Z,43.40
2022-10-31T05:27:54.980Z,44.80
2022-10-31T05:31:22.108Z,50.60
2022-10-31T05:34:49.813Z,57.20
2022-10-31T05:38:34.906Z,43.30
2022-10-31T05:42:16.208Z,38.90
2022-10-31T05:45:43.498Z,38.40
2022-10-31T05:49:21.555Z,35.20
2022-10-31T05:53:02.704Z,36.50
2022-10-31T05:56:33.943Z,34.50
2022-10-31T06:00:01.299Z,38.20
2022-10-31T06:03:28.665Z,36.20
2022-10-31T06:06:58.390Z,40.30
2022-10-31T06:10:26.189Z,39.20
2022-10-31T06:13:54.653Z,41.20
2022-10-31T06:17:29.902Z,42.10
2022-10-31T06:21:23.062Z,39.60
2022-10-31T06:24:51.005Z,40.40
2022-10-31T06:28:29.294Z,41.70
2022-10-31T06:32:01.696Z,41.30
2022-10-31T06:35:28.934Z,46.00
2022-10-31T06:38:56.209Z,47.60
2022-10-31T06:42:23.469Z,48.20
2022-10-31T06:45:51.291Z,48.00
2022-10-31T06:49:27.858Z,51.10
2022-10-31T06:52:58.821Z,48.80
2022-10-31T06:56:25.803Z,50.00
2022-10-31T06:59:53.764Z,49.00
2022-10-31T07:03:30.780Z,47.90
2022-10-31T07:06:57.883Z,46.70
2022-10-31T07:10:25.650Z,50.50
2022-10-31T07:13:58.067Z,47.20
2022-10-31T07:17:30.067Z,42.20
2022-10-31T07:20:59.958Z,38.20
2022-10-31T07:24:27.458Z,37.20
2022-10-31T07:28:13.089Z,34.30
2022-10-31T07:31:40.889Z,35.30
2022-10-31T07:35:16.790Z,34.50
2022-10-31T07:38:47.413Z,37.30
2022-10-31T07:42:14.735Z,35.80
2022-10-31T07:45:44.586Z,30.90
2022-10-31T07:49:46.888Z,26.70
2022-10-31T07:53:32.473Z,26.60
2022-10-31T07:57:10.748Z,27.00
2022-10-31T08:04:07.199Z,25.80
2022-10-31T08:07:57.481Z,26.60
2022-10-31T08:11:25.551Z,25.60
2022-10-31T08:14:53.775Z,28.20
2022-10-31T08:18:23.059Z,26.30
2022-10-31T08:21:52.283Z,26.10
2022-10-31T08:25:19.204Z,28.40
2022-10-31T08:28:47.642Z,26.40
2022-10-31T08:32:15.196Z,25.30
2022-10-31T08:36:01.212Z,26.10
2022-10-31T08:39:47.043Z,28.00
2022-10-31T08:43:16.699Z,28.00
2022-10-31T08:46:43.671Z,27.90
2022-10-31T08:50:12.130Z,29.10
2022-10-31T08:53:39.278Z,29.30
2022-10-31T08:57:26.601Z,37.60
2022-10-31T09:00:57.513Z,39.00
2022-10-31T09:04:26.231Z,30.40
2022-10-31T09:07:53.229Z,30.60
2022-10-31T09:11:20.561Z,30.10
2022-10-31T09:15:07.577Z,30.70
2022-10-31T09:19:11.588Z,32.00
2022-10-31T09:22:38.562Z,26.60
2022-10-31T09:26:06.490Z,26.20
2022-10-31T09:29:36.248Z,27.10
2022-10-31T09:33:06.943Z,25.40
2022-10-31T09:39:59.872Z,23.50
2022-10-31T09:43:45.274Z,25.10
2022-10-31T09:47:21.905Z,26.60
2022-10-31T09:51:05.724Z,26.10
2022-10-31T09:54:54.687Z,28.40
2022-10-31T09:58:26.619Z,28.40
2022-10-31T10:01:57.862Z,27.10
2022-10-31T10:05:34.433Z,25.00
2022-10-31T10:09:02.330Z,25.10
2022-10-31T10:13:13.571Z,22.60
2022-10-31T10:16:53.019Z,23.10
2022-10-31T10:20:33.666Z,24.00
2022-10-31T10:24:13.000Z,23.70
2022-10-31T10:27:51.547Z,23.20
2022-10-31T10:31:20.888Z,24.40
2022-10-31T10:34:53.250Z,25.60
2022-10-31T10:38:26.015Z,23.70
2022-10-31T10:42:10.955Z,26.70
2022-10-31T10:55:38.335Z,23.90
2022-10-31T10:59:06.279Z,23.50
2022-10-31T11:02:35.350Z,23.30
2022-10-31T11:06:03.004Z,22.10
2022-10-31T11:09:29.886Z,22.50
2022-10-31T11:13:18.467Z,22.70
2022-10-31T11:16:48.596Z,21.90
2022-10-31T11:20:32.788Z,22.30
2022-10-31T11:24:14.491Z,21.00
2022-10-31T11:27:41.082Z,20.40
2022-10-31T11:31:14.936Z,21.20
2022-10-31T11:34:47.485Z,20.10
2022-10-31T11:38:21.460Z,20.00
2022-10-31T11:41:49.251Z,18.90
2022-10-31T11:45:21.266Z,20.60
2022-10-31T11:48:54.073Z,19.70
2022-10-31T11:52:23.710Z,18.00
2022-10-31T11:59:24.542Z,18.30
2022-10-31T12:02:52.012Z,17.60
2022-10-31T12:06:23.054Z,18.10
2022-10-31T12:09:49.843Z,18.30
2022-10-31T12:13:32.368Z,18.50
2022-10-31T12:17:06.129Z,18.70
2022-10-31T12:20:45.146Z,17.80
2022-10-31T12:24:22.184Z,18.20
2022-10-31T12:28:03.008Z,20.00
2022-10-31T12:31:41.922Z,18.10
2022-10-31T12:35:21.414Z,18.10
2022-10-31T12:39:03.639Z,17.80
2022-10-31T12:42:48.489Z,17.90
2022-10-31T12:46:23.755Z,18.00
2022-10-31T12:50:02.302Z,17.30
2022-10-31T12:53:48.453Z,17.40
2022-10-31T12:57:25.242Z,16.30
2022-10-31T13:01:00.976Z,18.50
2022-10-31T13:04:43.815Z,17.30
2022-10-31T13:08:14.692Z,17.90
2022-10-31T13:11:45.755Z,17.40
2022-10-31T13:15:20.140Z,18.20
2022-10-31T13:18:50.976Z,17.30
2022-10-31T13:22:23.014Z,17.00
2022-10-31T13:25:54.100Z,17.70
2022-10-31T13:29:28.229Z,17.90
2022-10-31T13:33:04.321Z,19.70
2022-10-31T13:36:39.675Z,18.50
2022-10-31T13:40:23.031Z,21.10
2022-10-31T13:44:01.932Z,21.00
2022-10-31T13:47:31.225Z,21.00
2022-10-31T13:51:03.294Z,19.90
2022-10-31T13:54:37.455Z,19.90
2022-10-31T13:58:21.768Z,20.90
2022-10-31T14:01:55.316Z,19.50
2022-10-31T14:05:28.320Z,21.20
2022-10-31T14:08:55.855Z,20.20
2022-10-31T14:12:31.541Z,21.60
2022-10-31T14:16:02.032Z,22.40
2022-10-31T14:19:29.774Z,21.80
2022-10-31T14:22:56.606Z,21.90
2022-10-31T14:26:34.941Z,20.50
2022-10-31T14:30:15.560Z,21.80
2022-10-31T14:33:46.233Z,21.00
2022-10-31T14:37:50.436Z,20.90
2022-10-31T14:41:57.980Z,22.50
2022-10-31T14:45:38.997Z,22.60
2022-10-31T14:49:31.744Z,23.10
2022-10-31T14:53:02.992Z,23.40
2022-10-31T14:56:32.431Z,23.30
2022-10-31T15:00:05.290Z,24.30
2022-10-31T15:03:35.992Z,24.50
2022-10-31T15:07:06.834Z,26.50
2022-10-31T15:10:36.303Z,27.80
2022-10-31T15:14:03.134Z,29.90
2022-10-31T15:17:30.365Z,30.90
2022-10-31T15:20:59.089Z,31.70
2022-10-31T15:24:32.509Z,32.90
2022-10-31T15:27:59.811Z,32.30
2022-10-31T15:31:26.907Z,33.20
2022-10-31T15:34:54.958Z,33.10
2022-10-31T15:38:21.971Z,34.70
2022-10-31T15:41:54.708Z,33.60
2022-10-31T15:45:25.485Z,35.70
2022-10-31T15:48:52.380Z,39.50
2022-10-31T15:52:30.070Z,43.00
2022-10-31T15:55:59.585Z,44.10
2022-10-31T15:59:29.961Z,44.00
2022-10-31T16:03:08.162Z,60.00
2022-10-31T16:06:36.670Z,55.90
2022-10-31T16:10:05.862Z,50.50
2022-10-31T16:13:35.545Z,49.10
2022-10-31T16:17:03.567Z,47.70
2022-10-31T16:20:33.060Z,45.30
2022-10-31T16:24:06.050Z,45.10
2022-10-31T16:27:36.257Z,52.10
2022-10-31T16:31:03.369Z,49.90
2022-10-31T16:34:30.000Z,51.50
2022-10-31T16:37:57.190Z,57.60
2022-10-31T16:41:25.119Z,59.70
2022-10-31T16:44:52.196Z,56.30
2022-10-31T16:48:21.814Z,78.90
2022-10-31T16:51:48.580Z,87.60
2022-10-31T16:55:17.420Z,124.10
2022-10-31T16:58:45.125Z,73.70
2022-10-31T17:02:18.829Z,68.00
2022-10-31T17:05:46.789Z,63.20
2022-10-31T17:09:13.469Z,60.20
2022-10-31T17:12:41.330Z,61.70
2022-10-31T17:16:09.805Z,68.50
2022-10-31T17:19:36.621Z,74.80
2022-10-31T17:23:04.162Z,97.30
2022-10-31T17:26:31.652Z,98.60
2022-10-31T17:29:58.767Z,111.50
2022-10-31T17:33:25.780Z,111.20
2022-10-31T17:36:54.537Z,97.20
2022-10-31T17:40:23.485Z,90.90
2022-10-31T17:43:50.231Z,86.30
2022-10-31T17:47:16.890Z,85.30
2022-10-31T17:50:43.764Z,85.50
2022-10-31T17:54:12.119Z,95.30
2022-10-31T17:57:39.294Z,90.70
2022-10-31T18:01:11.198Z,93.00
2022-10-31T18:04:38.200Z,101.10
2022-10-31T18:08:05.987Z,94.70
2022-10-31T18:11:33.165Z,87.80
2022-10-31T18:15:00.757Z,86.50
2022-10-31T18:18:27.722Z,83.30
2022-10-31T18:21:54.446Z,83.30
2022-10-31T18:25:21.661Z,102.80
2022-10-31T18:28:48.608Z,113.30
2022-10-31T18:32:15.932Z,95.00
2022-10-31T18:35:43.113Z,101.70
2022-10-31T18:39:11.253Z,113.90
2022-10-31T18:42:38.821Z,125.80
2022-10-31T18:46:07.192Z,107.30
2022-10-31T18:49:33.938Z,102.90
2022-10-31T18:53:01.098Z,102.10
2022-10-31T18:56:28.938Z,102.00
2022-10-31T18:59:55.518Z,84.90
2022-10-31T19:03:26.239Z,74.30
2022-10-31T19:06:53.621Z,75.90
2022-10-31T19:10:20.377Z,92.90
2022-10-31T19:13:47.098Z,80.60
2022-10-31T19:17:13.935Z,74.80
2022-10-31T19:20:41.699Z,70.80
2022-10-31T19:24:10.165Z,74.20
2022-10-31T19:27:37.017Z,71.90
2022-10-31T19:31:04.505Z,65.90
2022-10-31T19:34:31.081Z,65.20
2022-10-31T19:37:57.824Z,61.70
2022-10-31T19:41:27.083Z,65.30
2022-10-31T19:44:53.786Z,61.30
2022-10-31T19:48:20.573Z,60.40
2022-10-31T19:51:47.582Z,60.50
2022-10-31T19:55:14.681Z,63.10
2022-10-31T19:58:42.142Z,60.40
2022-10-31T20:02:10.706Z,62.40
2022-10-31T20:05:42.781Z,52.90
2022-10-31T20:09:13.614Z,55.20
2022-10-31T20:12:40.672Z,60.60
2022-10-31T20:16:11.528Z,55.20
2022-10-31T20:19:38.314Z,57.60
2022-10-31T20:23:05.426Z,53.30
2022-10-31T20:26:33.654Z,54.40
2022-10-31T20:30:00.585Z,53.10
2022-10-31T20:33:27.943Z,51.70
2022-10-31T20:36:55.018Z,54.40
2022-10-31T20:40:21.745Z,46.60
2022-10-31T20:43:49.417Z,54.30
2022-10-31T20:47:17.763Z,57.60
2022-10-31T20:50:45.401Z,56.20
2022-10-31T20:54:15.414Z,58.30
2022-10-31T20:57:42.188Z,57.90
2022-10-31T21:01:12.688Z,58.20
2022-10-31T21:04:39.988Z,59.40
2022-10-31T21:08:07.550Z,60.10
2022-10-31T21:11:34.247Z,56.60
2022-10-31T21:15:01.298Z,61.10
2022-10-31T21:18:28.441Z,57.80
2022-10-31T21:29:56.317Z,57.90
2022-10-31T21:33:23.375Z,55.90
2022-10-31T21:36:50.083Z,53.60
2022-10-31T21:40:17.282Z,54.20
2022-10-31T21:43:46.051Z,52.10
2022-10-31T21:47:12.786Z,55.00
2022-10-31T21:50:39.442Z,51.00
2022-10-31T21:54:25.120Z,53.30
2022-10-31T21:57:52.080Z,52.90
2022-10-31T22:01:19.200Z,58.00
2022-10-31T22:04:48.681Z,55.70
2022-10-31T22:08:15.266Z,56.70
2022-10-31T22:11:42.391Z,61.00
2022-10-31T22:15:10.908Z,60.90
2022-10-31T22:18:38.314Z,58.70
2022-10-31T22:22:05.801Z,54.90
2022-10-31T22:25:32.448Z,57.60
2022-10-31T22:29:01.212Z,53.70
2022-10-31T22:32:28.037Z,58.30
2022-10-31T22:35:55.043Z,61.40
2022-10-31T22:39:22.130Z,62.40
2022-10-31T22:42:49.345Z,65.80
2022-10-31T22:49:22.038Z,55.10
2022-10-31T22:52:48.927Z,60.50
2022-10-31T22:56:17.911Z,58.80
2022-10-31T22:59:44.873Z,63.40
2022-10-31T23:03:11.805Z,62.60
2022-10-31T23:06:39.659Z,63.10
2022-10-31T23:10:08.031Z,54.00
2022-10-31T23:13:52.729Z,55.20
2022-10-31T23:17:19.587Z,60.00
2022-10-31T23:20:51.380Z,59.90
2022-10-31T23:24:18.423Z,58.00
2022-10-31T23:27:45.569Z,57.50
2022-10-31T23:31:12.902Z,60.00
2022-10-31T23:34:39.773Z,58.50
2022-10-31T23:38:06.882Z,49.30
2022-10-31T23:41:33.873Z,60.70
2022-10-31T23:45:00.658Z,56.90
2022-10-31T23:48:27.488Z,55.70
2022-10-31T23:51:56.665Z,59.60
2022-10-31T23:55:25.408Z,61.90
2022-10-31T23:58:52.359Z,60.70
